Barao de Grajau, Brazil
Current Conditions -  °F | °C
As of 5:00 PM on Monday 24 Nov 2014 (Local Time) from SBTE Reporting Station
Scattered Clouds Scattered Clouds  
Wind Chill: 97°   Ceiling: Unl
Heat Index: 97°   Visibility: 6mi
Dew Point: 61°   Wind: 8mph
Humidity: 30%   Direction: 230°SW
Pressure: 29.74"   Gusts: NA
Location:  6.76°S, 43.02°W
Report Text: SBTE 242000Z 23007KT 9999 FEW033 SCT080 36/16 Q1007
Loading
Personal Weather Stations






























Interactive Weather Map New forecast layout! Learn more

10-Day Weather Forecast

Advertisements
Track Severe Weather on mobile